Time;durP1;ratioP1;P1;durP2;ratioP2;P2;SDS_P1;SDS_P2;PMS_P1;PMS_P2;Temp;Humidity;BMP_temperature;BMP_pressure;BME280_temperature;BME280_humidity;BME280_pressure;Samples;Min_cycle;Max_cycle;Signal;HPM_P1;HPM_P2
2021/01/28 00:01:24;;;;;;;;;;;;;;;4.25;79.01;99628.22;3070405;28;19933;-77
2021/01/28 00:03:05;;;;;;;;;;;;;;;4.29;78.89;99631.47;3075498;29;19926;-79
2021/01/28 00:04:42;;;;;;;;;;;;;;;4.29;78.75;99631.47;3059651;29;19931;-79
2021/01/28 00:06:13;;;;;;;;;;;;;;;4.31;78.46;99626.91;3058579;28;19931;-79
2021/01/28 00:07:44;;;;;;;;;;;;;;;4.35;78.46;99623.06;3063866;29;19927;-80
2021/01/28 00:09:16;;;;;;;;;;;;;;;4.35;78.46;99620.41;3058846;28;19926;-77
2021/01/28 00:10:47;;;;;;;;;;;;;;;4.26;79.00;99618.47;3063911;29;19926;-77
2021/01/28 00:17:21;;;;;;;;;;;;;;;4.41;78.39;99625.28;3279038;23;19930;-79
2021/01/28 00:18:53;;;;;;;;;;;;;;;4.37;78.51;99614.06;3095980;28;20312;-79
2021/01/28 00:20:33;;;;;;;;;;;;;;;4.40;78.57;99623.56;3100123;28;19933;-79
2021/01/28 00:22:17;;;;;;;;;;;;;;;4.38;78.41;99612.25;3095001;28;19930;-79
2021/01/28 00:23:54;;;;;;;;;;;;;;;4.37;78.29;99619.38;3100673;28;20313;-80
2021/01/28 00:25:26;;;;;;;;;;;;;;;4.42;78.51;99611.06;3094657;28;19930;-79
2021/01/28 00:26:57;;;;;;;;;;;;;;;4.48;78.32;99612.41;3102981;28;19926;-80
2021/01/28 00:28:28;;;;;;;;;;;;;;;4.48;78.11;99613.25;3099563;28;19926;-77
2021/01/28 00:29:59;;;;;;;;;;;;;;;4.43;78.28;99612.78;3102727;28;19933;-78
2021/01/28 00:31:36;;;;;;;;;;;;;;;4.44;78.24;99609.13;3098940;28;20004;-79
2021/01/28 00:33:08;;;;;;;;;;;;;;;4.45;78.32;99616.13;3100380;28;19925;-78
2021/01/28 00:34:39;;;;;;;;;;;;;;;4.44;78.18;99609.13;3104665;28;19980;-77
2021/01/28 00:36:10;;;;;;;;;;;;;;;4.48;78.01;99605.31;3097008;28;19932;-78
2021/01/28 00:37:41;;;;;;;;;;;;;;;4.48;78.30;99605.31;3103328;28;19926;-78
2021/01/28 00:39:14;;;;;;;;;;;;;;;4.49;78.26;99593.75;3095036;28;19932;-77
2021/01/28 00:40:52;;;;;;;;;;;;;;;4.51;78.37;99597.16;3099391;28;19926;-77
2021/01/28 00:42:23;;;;;;;;;;;;;;;4.49;78.15;99607.00;3093420;28;19933;-77
2021/01/28 00:43:54;;;;;;;;;;;;;;;4.48;78.15;99594.72;3099303;28;19930;-78
2021/01/28 00:45:26;;;;;;;;;;;;;;;4.44;78.31;99603.00;3094073;28;19984;-78
2021/01/28 00:46:57;;;;;;;;;;;;;;;4.45;78.26;99592.28;3099164;28;19965;-78
2021/01/28 00:48:28;;;;;;;;;;;;;;;4.40;78.23;99586.53;3093237;28;19926;-78
2021/01/28 00:49:59;;;;;;;;;;;;;;;4.40;78.42;99572.44;3099353;28;19957;-78
2021/01/28 00:51:31;;;;;;;;;;;;;;;4.46;78.57;99583.41;3094888;28;19926;-78
2021/01/28 00:53:02;;;;;;;;;;;;;;;4.50;78.47;99573.41;3099375;28;20384;-78
2021/01/28 00:54:37;;;;;;;;;;;;;;;4.47;78.29;99574.50;3093156;28;19930;-78
2021/01/28 00:56:28;;;;;;;;;;;;;;;4.47;78.33;99582.44;3099808;28;19933;-78
2021/01/28 00:57:59;;;;;;;;;;;;;;;4.49;78.26;99580.53;3094422;28;19930;-78
2021/01/28 00:59:36;;;;;;;;;;;;;;;4.49;78.18;99580.53;3099996;28;20002;-78
2021/01/28 01:01:07;;;;;;;;;;;;;;;4.53;78.27;99571.38;3093887;28;20012;-78
2021/01/28 01:04:19;;;;;;;;;;;;;;;4.50;78.33;99552.25;3381395;23;19933;-77
2021/01/28 01:06:01;;;;;;;;;;;;;;;4.50;78.39;99566.34;3086760;28;19927;-79
2021/01/28 01:07:36;;;;;;;;;;;;;;;4.52;78.16;99555.63;3082558;28;19995;-77
2021/01/28 01:09:16;;;;;;;;;;;;;;;4.51;78.28;99557.44;3081526;28;19926;-79
2021/01/28 01:10:48;;;;;;;;;;;;;;;4.53;78.21;99560.78;3087566;28;19926;-77
2021/01/28 04:51:35;;;;;;;;;;;;;;;4.41;75.85;99199.16;1453272;23;20278;-79
2021/01/28 04:53:09;;;;;;;;;;;;;;;4.42;75.82;99182.31;3113814;28;19909;-77
2021/01/28 04:56:48;;;;;;;;;;;;;;;4.32;76.23;99182.19;3117521;28;20036;-78
2021/01/28 05:00:37;;;;;;;;;;;;;;;4.36;76.01;99183.66;3122439;28;19949;-78
2021/01/28 05:02:10;;;;;;;;;;;;;;;4.33;76.18;99185.72;3128155;28;19927;-78
2021/01/28 05:03:44;;;;;;;;;;;;;;;4.39;76.22;99184.38;3120143;28;19913;-78
2021/01/28 05:05:17;;;;;;;;;;;;;;;4.42;76.10;99184.09;3127955;28;19937;-78
2021/01/28 05:09:04;;;;;;;;;;;;;;;4.48;75.82;99173.84;3124953;28;19902;-79
2021/01/28 05:10:36;;;;;;;;;;;;;;;4.48;75.60;99176.50;3122272;28;19926;-78
2021/01/28 05:16:25;;;;;;;;;;;;;;;4.54;75.71;99169.84;3096433;28;19946;-78
2021/01/28 05:18:22;;;;;;;;;;;;;;;4.52;75.71;99161.19;3102121;28;19914;-78
2021/01/28 05:19:53;;;;;;;;;;;;;;;4.55;75.94;99154.78;3103175;28;19936;-80
2021/01/28 05:23:41;;;;;;;;;;;;;;;4.52;76.13;99154.09;3120770;28;20004;-78
2021/01/28 05:27:35;;;;;;;;;;;;;;;4.63;75.79;99141.78;3100154;28;19957;-78
2021/01/28 05:29:19;;;;;;;;;;;;;;;4.58;75.83;99138.66;3107932;28;19925;-78
2021/01/28 05:31:19;;;;;;;;;;;;;;;4.58;75.98;99146.59;3102959;28;19925;-78
2021/01/28 05:35:34;;;;;;;;;;;;;;;4.64;75.64;99138.13;3097469;28;19922;-78
2021/01/28 05:41:31;;;;;;;;;;;;;;;4.60;75.83;99128.78;3118845;28;19917;-78
2021/01/28 06:03:11;;;;;;;;;;;;;;;4.55;77.50;99080.69;3512206;23;19929;-77
2021/01/28 06:09:06;;;;;;;;;;;;;;;4.49;78.48;99066.16;3138066;28;19928;-77
2021/01/28 06:13:11;;;;;;;;;;;;;;;4.52;78.14;99056.16;3126842;28;19921;-77
2021/01/28 06:17:21;;;;;;;;;;;;;;;4.52;78.73;99061.47;3133095;28;19944;-77
2021/01/28 06:19:01;;;;;;;;;;;;;;;4.57;78.46;99057.56;3132560;28;19929;-78
2021/01/28 06:20:43;;;;;;;;;;;;;;;4.57;78.66;99042.53;3137278;28;19929;-77
2021/01/28 06:22:22;;;;;;;;;;;;;;;4.58;78.44;99032.78;3131069;28;19971;-77
2021/01/28 06:24:06;;;;;;;;;;;;;;;4.64;78.61;99035.75;3137517;28;19952;-78
2021/01/28 06:26:07;;;;;;;;;;;;;;;4.68;78.32;99034.50;3132802;28;19971;-77
2021/01/28 06:30:10;;;;;;;;;;;;;;;4.65;78.46;99012.75;3136363;28;19984;-78
2021/01/28 06:31:45;;;;;;;;;;;;;;;4.65;78.43;99015.38;3132235;28;19936;-78
2021/01/28 06:36:02;;;;;;;;;;;;;;;4.72;78.93;99005.13;3135457;28;19917;-78
2021/01/28 06:37:44;;;;;;;;;;;;;;;4.70;78.83;98994.66;3128976;28;19929;-78
2021/01/28 06:39:17;;;;;;;;;;;;;;;4.71;78.93;99003.44;3130515;28;19952;-79
2021/01/28 06:40:51;;;;;;;;;;;;;;;4.72;78.67;99003.31;3136451;28;19932;-77
2021/01/28 06:42:32;;;;;;;;;;;;;;;4.70;78.59;98994.66;3130940;28;19929;-78
2021/01/28 06:44:18;;;;;;;;;;;;;;;4.65;79.06;98988.91;3135797;28;19948;-78
2021/01/28 06:48:02;;;;;;;;;;;;;;;4.66;78.93;98990.59;3135285;28;19918;-78
2021/01/28 06:49:50;;;;;;;;;;;;;;;4.60;79.36;98988.50;3129047;28;19984;-78
2021/01/28 06:53:34;;;;;;;;;;;;;;;4.53;79.64;98967.81;3127540;28;19917;-79
2021/01/28 06:55:21;;;;;;;;;;;;;;;4.56;79.61;98961.44;3114870;28;19925;-78
2021/01/28 06:57:11;;;;;;;;;;;;;;;4.62;79.63;98970.66;3136239;28;19929;-79
2021/01/28 06:58:47;;;;;;;;;;;;;;;4.67;79.78;98966.66;3125791;28;19929;-79
2021/01/28 07:00:41;;;;;;;;;;;;;;;4.62;79.72;98968.03;3092347;28;19944;-78
2021/01/28 07:02:20;;;;;;;;;;;;;;;4.61;79.67;98963.69;3112177;28;20139;-79
2021/01/28 07:03:56;;;;;;;;;;;;;;;4.68;79.31;98964.81;3125049;28;19925;-78
2021/01/28 07:05:46;;;;;;;;;;;;;;;4.64;79.75;98948.38;3135796;28;19935;-79
2021/01/28 07:07:21;;;;;;;;;;;;;;;4.61;79.52;98953.09;3121827;28;20020;-79
2021/01/28 07:09:02;;;;;;;;;;;;;;;4.57;79.76;98944.59;3125590;28;19952;-78
2021/01/28 07:10:48;;;;;;;;;;;;;;;4.55;80.00;98946.53;3120793;28;19930;-78
2021/01/28 07:12:50;;;;;;;;;;;;;;;4.58;79.86;98942.78;3110600;28;19925;-79
2021/01/28 07:14:24;;;;;;;;;;;;;;;4.53;79.98;98941.34;3136071;28;19925;-78
2021/01/28 07:15:57;;;;;;;;;;;;;;;4.53;80.22;98936.06;3092112;28;19925;-78
2021/01/28 07:17:32;;;;;;;;;;;;;;;4.49;80.74;98932.00;3126920;28;19925;-79
2021/01/28 07:19:23;;;;;;;;;;;;;;;4.52;80.26;98934.41;3112178;28;19933;-80
2021/01/28 07:24:38;;;;;;;;;;;;;;;4.52;80.37;98923.81;3116206;28;19951;-79
2021/01/28 07:26:13;;;;;;;;;;;;;;;4.52;80.58;98925.63;3123253;28;19932;-78
2021/01/28 07:30:02;;;;;;;;;;;;;;;4.48;81.22;98917.09;3122344;28;19918;-79
2021/01/28 07:45:32;;;;;;;;;;;;;;;4.55;81.53;98890.94;3505839;22;19997;-78
2021/01/28 07:47:36;;;;;;;;;;;;;;;4.57;81.63;98880.22;3135120;28;19925;-78
2021/01/28 07:49:14;;;;;;;;;;;;;;;4.62;81.24;98878.00;3130612;28;19933;-77
2021/01/28 07:50:45;;;;;;;;;;;;;;;4.60;81.45;98879.94;3132215;28;19929;-77
2021/01/28 07:52:45;;;;;;;;;;;;;;;4.63;81.39;98877.03;3126579;28;19932;-78
2021/01/28 07:54:35;;;;;;;;;;;;;;;4.61;81.30;98865.75;3129100;28;19936;-78
2021/01/28 07:56:24;;;;;;;;;;;;;;;4.58;81.92;98873.94;3127122;28;19926;-79
2021/01/28 07:57:56;;;;;;;;;;;;;;;4.62;81.42;98870.06;3120733;28;19952;-77
2021/01/28 07:59:34;;;;;;;;;;;;;;;4.64;81.64;98868.09;3134894;28;19925;-77
2021/01/28 08:03:23;;;;;;;;;;;;;;;4.67;81.53;98865.19;3128844;28;19921;-77
2021/01/28 08:05:19;;;;;;;;;;;;;;;4.63;81.56;98851.41;3134945;28;19925;-78
2021/01/28 08:06:59;;;;;;;;;;;;;;;4.65;81.80;98851.25;3117775;28;19984;-78
2021/01/28 08:10:39;;;;;;;;;;;;;;;4.68;82.05;98851.81;3124339;28;19921;-79
2021/01/28 08:12:10;;;;;;;;;;;;;;;4.69;81.73;98842.91;3130236;28;19925;-79
2021/01/28 08:22:06;;;;;;;;;;;;;;;4.81;81.94;98817.16;3119082;28;19925;-76
2021/01/28 08:24:01;;;;;;;;;;;;;;;4.85;81.48;98812.41;3124648;28;20404;-77
2021/01/28 08:25:33;;;;;;;;;;;;;;;4.87;81.73;98805.16;3127730;28;19925;-77
2021/01/28 08:27:15;;;;;;;;;;;;;;;4.86;81.63;98802.66;3132056;28;19993;-77
2021/01/28 08:28:46;;;;;;;;;;;;;;;4.87;81.48;98794.56;3136145;28;19925;-77
2021/01/28 08:30:19;;;;;;;;;;;;;;;4.88;81.92;98800.69;3126062;28;19948;-77
2021/01/28 08:31:51;;;;;;;;;;;;;;;4.92;81.84;98788.84;3134824;28;19925;-77
2021/01/28 08:33:25;;;;;;;;;;;;;;;4.90;81.50;98788.16;3129594;28;21022;-77
2021/01/28 08:37:11;;;;;;;;;;;;;;;4.87;81.92;98778.66;3126091;28;19925;-77
2021/01/28 08:39:01;;;;;;;;;;;;;;;4.87;81.86;98773.38;3129030;28;19932;-77
2021/01/28 08:40:39;;;;;;;;;;;;;;;4.91;81.88;98755.41;3129443;28;19925;-78
2021/01/28 08:42:12;;;;;;;;;;;;;;;4.93;81.76;98750.78;3131332;28;19932;-77
2021/01/28 08:44:19;;;;;;;;;;;;;;;4.95;81.59;98741.75;3135962;28;19929;-78
2021/01/28 08:46:01;;;;;;;;;;;;;;;4.92;81.89;98739.38;3129799;28;19926;-78
2021/01/28 08:49:59;;;;;;;;;;;;;;;5.02;81.65;98734.06;3132322;28;19976;-79
2021/01/28 08:51:52;;;;;;;;;;;;;;;5.04;81.78;98726.81;3128562;28;20019;-78
2021/01/28 08:56:10;;;;;;;;;;;;;;;5.04;81.75;98716.22;3115123;28;19922;-77
2021/01/28 08:58:06;;;;;;;;;;;;;;;5.05;82.08;98711.75;3095374;28;19925;-77
2021/01/28 09:03:51;;;;;;;;;;;;;;;5.01;82.29;98700.59;3076094;28;19920;-77
2021/01/28 09:05:33;;;;;;;;;;;;;;;5.02;82.30;98698.78;3125377;28;19993;-77
2021/01/28 09:07:04;;;;;;;;;;;;;;;5.10;82.25;98685.66;3093876;28;19936;-76
2021/01/28 09:08:43;;;;;;;;;;;;;;;5.14;82.05;98674.63;3128654;28;19953;-77
2021/01/28 09:10:22;;;;;;;;;;;;;;;5.13;82.05;98672.97;3119652;28;19929;-77
2021/01/28 09:12:14;;;;;;;;;;;;;;;5.13;82.27;98670.31;3136395;28;19935;-77
2021/01/28 09:14:23;;;;;;;;;;;;;;;5.12;82.19;98670.47;3129431;28;19925;-77
2021/01/28 09:16:06;;;;;;;;;;;;;;;5.11;82.10;98669.63;3121681;28;20453;-77
2021/01/28 09:19:55;;;;;;;;;;;;;;;5.14;82.34;98664.03;3132597;28;19988;-76
2021/01/28 09:23:41;;;;;;;;;;;;;;;5.15;82.63;98646.31;3135962;28;19944;-78
2021/01/28 09:29:33;;;;;;;;;;;;;;;5.26;82.30;98643.50;3123765;28;19981;-77
2021/01/28 09:31:19;;;;;;;;;;;;;;;5.30;82.51;98638.75;3127385;28;19947;-77
2021/01/28 09:37:08;;;;;;;;;;;;;;;5.36;82.16;98640.81;3137969;28;20450;-78
2021/01/28 09:39:13;;;;;;;;;;;;;;;5.36;82.28;98650.56;3136687;28;20431;-78
2021/01/28 09:41:21;;;;;;;;;;;;;;;5.38;82.47;98641.53;3072099;28;19937;-78
2021/01/28 09:49:46;;;;;;;;;;;;;;;5.43;82.49;98641.91;3467419;23;19929;-77
2021/01/28 09:53:59;;;;;;;;;;;;;;;5.46;82.86;98632.81;3114183;28;19921;-77
2021/01/28 09:58:00;;;;;;;;;;;;;;;5.52;83.09;98636.72;3121553;28;19945;-77
2021/01/28 09:59:35;;;;;;;;;;;;;;;5.43;82.93;98625.19;3126098;28;19926;-77
2021/01/28 10:01:07;;;;;;;;;;;;;;;5.47;83.08;98626.53;3111069;28;19941;-78
2021/01/28 10:02:41;;;;;;;;;;;;;;;5.52;82.66;98624.31;3124617;28;19925;-77
2021/01/28 10:04:14;;;;;;;;;;;;;;;5.50;82.92;98620.09;3117788;28;19925;-78
2021/01/28 10:06:03;;;;;;;;;;;;;;;5.47;83.05;98622.09;3122664;28;19926;-77
2021/01/28 10:07:50;;;;;;;;;;;;;;;5.51;82.96;98627.06;3118706;28;19925;-77
2021/01/28 10:09:24;;;;;;;;;;;;;;;5.52;82.94;98620.78;3110872;28;19926;-77
2021/01/28 10:10:55;;;;;;;;;;;;;;;5.50;82.79;98612.16;3113249;28;19937;-77
2021/01/28 10:12:44;;;;;;;;;;;;;;;5.54;83.25;98613.53;3107418;28;20281;-77
2021/01/28 10:14:49;;;;;;;;;;;;;;;5.49;83.08;98599.88;3121050;28;19933;-77
2021/01/28 10:16:20;;;;;;;;;;;;;;;5.52;83.25;98604.91;3119829;28;19926;-77
2021/01/28 10:20:08;;;;;;;;;;;;;;;5.50;83.33;98598.91;3120892;28;19929;-77
2021/01/28 10:26:43;;;;;;;;;;;;;;;5.60;83.12;98591.72;3558552;23;19925;-76
2021/01/28 10:28:32;;;;;;;;;;;;;;;5.61;83.11;98588.09;3130458;28;19925;-76
2021/01/28 10:30:03;;;;;;;;;;;;;;;5.60;83.53;98592.59;3130406;28;19925;-78
2021/01/28 10:32:12;;;;;;;;;;;;;;;5.60;83.83;98578.47;3137004;28;19936;-77
2021/01/28 10:33:43;;;;;;;;;;;;;;;5.67;83.48;98584.84;3126746;28;19954;-77
2021/01/28 10:35:15;;;;;;;;;;;;;;;5.73;83.38;98586.06;3142308;28;19913;-78
2021/01/28 10:36:46;;;;;;;;;;;;;;;5.79;83.44;98588.13;3129235;28;19932;-78
2021/01/28 10:38:17;;;;;;;;;;;;;;;5.78;83.56;98581.16;3137590;28;19929;-77
2021/01/28 10:39:48;;;;;;;;;;;;;;;5.78;83.71;98589.94;3132278;28;19932;-77
2021/01/28 10:41:19;;;;;;;;;;;;;;;5.82;83.38;98573.75;3138210;28;19936;-78
2021/01/28 10:56:12;;;;;;;;;;;;;;;5.96;83.96;98546.66;3355903;22;19941;-77
2021/01/28 10:59:51;;;;;;;;;;;;;;;6.01;83.92;98539.13;3136416;28;19921;-77
2021/01/28 11:05:03;;;;;;;;;;;;;;;6.07;83.89;98509.34;3640507;22;19937;-78
2021/01/28 11:08:40;;;;;;;;;;;;;;;6.13;84.06;98494.63;3109870;28;19980;-77
2021/01/28 11:10:12;;;;;;;;;;;;;;;6.11;84.44;98495.78;3102742;28;19925;-77
2021/01/28 11:15:08;;;;;;;;;;;;;;;6.23;84.14;98481.28;3164356;23;19925;-76
2021/01/28 11:17:06;;;;;;;;;;;;;;;6.29;83.98;98478.00;3121184;28;19925;-77
2021/01/28 11:18:38;;;;;;;;;;;;;;;6.33;83.84;98467.88;3116537;28;20385;-77
2021/01/28 11:20:10;;;;;;;;;;;;;;;6.33;83.88;98458.09;3122816;28;19932;-77
2021/01/28 11:23:22;;;;;;;;;;;;;;;6.40;84.26;98466.28;3611362;22;20052;-77
2021/01/28 11:27:29;;;;;;;;;;;;;;;6.48;84.15;98466.31;3122872;28;19921;-78
2021/01/28 11:33:17;;;;;;;;;;;;;;;6.59;84.33;98461.72;3118094;28;19944;-78
2021/01/28 11:37:18;;;;;;;;;;;;;;;6.67;84.12;98445.84;3117568;28;19921;-78
2021/01/28 11:43:06;;;;;;;;;;;;;;;6.75;84.21;98426.44;3107167;28;19921;-77
2021/01/28 11:48:54;;;;;;;;;;;;;;;6.82;84.20;98408.88;3106360;28;19989;-79
2021/01/28 11:50:25;;;;;;;;;;;;;;;6.83;84.40;98411.41;3111269;28;19980;-78
2021/01/28 12:35:40;;;;;;;;;;;;;;;7.53;85.84;98332.25;3685889;22;19989;-77
2021/01/28 12:37:11;;;;;;;;;;;;;;;7.60;85.92;98337.75;3115813;28;19926;-77
2021/01/28 12:38:42;;;;;;;;;;;;;;;7.64;85.80;98321.28;3120834;28;19925;-78
2021/01/28 12:40:16;;;;;;;;;;;;;;;7.65;86.00;98319.44;3115870;28;19925;-77
2021/01/28 12:41:47;;;;;;;;;;;;;;;7.72;85.90;98322.25;3120965;28;19953;-77
2021/01/28 12:43:18;;;;;;;;;;;;;;;7.73;86.11;98321.28;3115762;28;19956;-77
2021/01/28 12:44:49;;;;;;;;;;;;;;;7.75;86.10;98319.25;3120858;28;19925;-77
2021/01/28 12:46:20;;;;;;;;;;;;;;;7.76;86.02;98316.44;3114257;28;19932;-77
2021/01/28 12:48:03;;;;;;;;;;;;;;;7.85;85.77;98311.09;3121251;28;19930;-77
2021/01/28 12:49:45;;;;;;;;;;;;;;;7.89;86.01;98315.06;3093966;28;19949;-77
2021/01/28 12:51:17;;;;;;;;;;;;;;;7.92;86.15;98310.25;3112344;28;19933;-77
2021/01/28 12:55:25;;;;;;;;;;;;;;;8.04;86.46;98301.88;3115514;28;19921;-77
2021/01/28 12:57:08;;;;;;;;;;;;;;;8.19;87.16;98310.84;3119673;28;19941;-77
2021/01/28 13:02:55;;;;;;;;;;;;;;;9.20;86.25;98291.47;3107326;28;19918;-78
2021/01/28 13:04:34;;;;;;;;;;;;;;;9.33;86.05;98288.22;3110115;28;19926;-77
2021/01/28 13:06:38;;;;;;;;;;;;;;;9.45;85.95;98299.28;3113007;28;19936;-77
2021/01/28 13:08:25;;;;;;;;;;;;;;;9.58;85.76;98298.66;3113425;28;19932;-77
2021/01/28 13:09:56;;;;;;;;;;;;;;;9.65;85.54;98295.09;3117402;28;19926;-77
2021/01/28 13:11:27;;;;;;;;;;;;;;;9.66;85.59;98286.06;3122060;28;19932;-78
2021/01/28 13:12:58;;;;;;;;;;;;;;;9.75;85.26;98286.00;3218571;23;19925;-77
2021/01/28 13:14:29;;;;;;;;;;;;;;;9.82;84.98;98294.91;3141264;28;19950;-77
2021/01/28 13:16:09;;;;;;;;;;;;;;;9.83;85.12;98284.03;3128866;28;19929;-77
2021/01/28 13:21:56;;;;;;;;;;;;;;;9.97;84.66;98287.72;3124603;28;19921;-78
2021/01/28 13:23:32;;;;;;;;;;;;;;;10.05;84.50;98284.16;3133170;28;19925;-77
2021/01/28 13:27:01;;;;;;;;;;;;;;;10.25;83.73;98273.72;3120487;28;19926;-78
2021/01/28 13:28:31;;;;;;;;;;;;;;;10.35;83.46;98273.44;3121944;28;19925;-77
2021/01/28 13:30:10;;;;;;;;;;;;;;;10.34;83.57;98270.97;3129576;28;19931;-77
2021/01/28 13:32:00;;;;;;;;;;;;;;;10.41;83.55;98274.56;3129360;28;19925;-77
2021/01/28 13:33:31;;;;;;;;;;;;;;;10.49;82.90;98284.31;3125440;28;19925;-77
2021/01/28 13:35:05;;;;;;;;;;;;;;;10.56;82.54;98258.53;3130066;28;19925;-77
2021/01/28 13:36:36;;;;;;;;;;;;;;;10.64;82.38;98269.09;3120369;28;19989;-77
2021/01/28 13:38:07;;;;;;;;;;;;;;;10.62;82.41;98273.78;3130448;28;20323;-77
2021/01/28 13:39:39;;;;;;;;;;;;;;;10.60;82.24;98275.81;3124835;28;19932;-78
2021/01/28 13:41:10;;;;;;;;;;;;;;;10.65;82.12;98278.75;3129007;28;19932;-78
2021/01/28 13:44:21;;;;;;;;;;;;;;;10.67;82.00;98275.91;3328143;23;19933;-78
2021/01/28 13:46:14;;;;;;;;;;;;;;;10.75;81.85;98287.31;3113174;28;20304;-77
2021/01/28 13:47:46;;;;;;;;;;;;;;;10.87;81.58;98273.41;3116947;28;20373;-77
2021/01/28 13:49:18;;;;;;;;;;;;;;;10.88;81.26;98267.91;3111174;28;19925;-77
2021/01/28 13:51:05;;;;;;;;;;;;;;;10.89;81.08;98290.09;3115071;28;19926;-77
2021/01/28 13:52:36;;;;;;;;;;;;;;;10.93;80.89;98270.81;3111401;28;19929;-77
2021/01/28 13:54:08;;;;;;;;;;;;;;;10.93;80.87;98272.69;3111322;28;20028;-77
2021/01/28 13:55:40;;;;;;;;;;;;;;;11.00;80.68;98291.47;3114091;28;19979;-77
2021/01/28 13:57:11;;;;;;;;;;;;;;;10.99;80.75;98285.28;3112411;28;19925;-78
2021/01/28 13:58:42;;;;;;;;;;;;;;;11.10;80.25;98283.94;3113412;28;19956;-77
2021/01/28 14:00:14;;;;;;;;;;;;;;;11.08;80.48;98284.13;3115398;28;19925;-77
2021/01/28 14:02:05;;;;;;;;;;;;;;;11.06;80.40;98278.13;3115718;28;19925;-77
2021/01/28 14:03:36;;;;;;;;;;;;;;;11.02;80.74;98284.91;3109260;28;19929;-78
2021/01/28 14:05:08;;;;;;;;;;;;;;;11.10;80.52;98289.28;3122116;28;19976;-78
2021/01/28 14:08:53;;;;;;;;;;;;;;;11.07;80.56;98290.50;3119089;28;19921;-78
2021/01/28 14:12:19;;;;;;;;;;;;;;;11.15;80.30;98272.66;3115946;28;19929;-77
2021/01/28 14:13:51;;;;;;;;;;;;;;;11.24;79.97;98284.91;3118514;28;20347;-78
2021/01/28 14:15:25;;;;;;;;;;;;;;;11.26;79.83;98282.84;3127537;28;20403;-79
2021/01/28 14:17:05;;;;;;;;;;;;;;;11.29;79.94;98273.63;3118886;28;19937;-78
2021/01/28 14:18:38;;;;;;;;;;;;;;;11.34;79.72;98287.25;3115146;28;19936;-77
2021/01/28 14:20:31;;;;;;;;;;;;;;;11.36;79.59;98290.56;3112574;28;19929;-78
2021/01/28 14:22:02;;;;;;;;;;;;;;;11.47;79.23;98297.22;3100868;28;19933;-77
2021/01/28 14:23:37;;;;;;;;;;;;;;;11.43;79.33;98301.31;3108719;28;19956;-77
2021/01/28 14:25:15;;;;;;;;;;;;;;;11.41;79.42;98298.00;3100294;28;20009;-77
2021/01/28 14:26:53;;;;;;;;;;;;;;;11.44;79.37;98293.09;3111783;28;19925;-77
2021/01/28 14:28:25;;;;;;;;;;;;;;;11.44;79.49;98302.94;3112251;28;19976;-77
2021/01/28 14:29:58;;;;;;;;;;;;;;;11.46;79.38;98298.25;3119003;28;19933;-77
2021/01/28 14:31:30;;;;;;;;;;;;;;;11.41;79.52;98289.97;3110527;28;19965;-76
2021/01/28 14:33:02;;;;;;;;;;;;;;;11.44;79.47;98292.25;3119926;28;19960;-77
2021/01/28 14:34:33;;;;;;;;;;;;;;;11.46;79.19;98296.41;3115062;28;19925;-77
2021/01/28 14:36:11;;;;;;;;;;;;;;;11.50;79.10;98300.34;3099164;28;19925;-77
2021/01/28 14:37:42;;;;;;;;;;;;;;;11.51;79.15;98304.66;3109696;28;19964;-78
2021/01/28 14:41:40;;;;;;;;;;;;;;;11.56;78.95;98306.78;3114759;28;19964;-77
2021/01/28 14:43:11;;;;;;;;;;;;;;;11.50;79.44;98308.38;3117397;28;19932;-78
2021/01/28 14:44:42;;;;;;;;;;;;;;;11.47;79.58;98306.09;3120328;28;19932;-78
2021/01/28 14:46:13;;;;;;;;;;;;;;;11.50;79.40;98292.31;3110003;28;20392;-77
2021/01/28 14:47:56;;;;;;;;;;;;;;;11.47;79.61;98308.78;3112590;28;19937;-78
2021/01/28 14:49:34;;;;;;;;;;;;;;;11.54;79.28;98306.13;3106129;28;20080;-77
2021/01/28 14:51:07;;;;;;;;;;;;;;;11.51;79.55;98309.22;3111522;28;20202;-78
2021/01/28 14:52:42;;;;;;;;;;;;;;;11.54;79.32;98306.13;3111681;28;19971;-78
2021/01/28 14:54:25;;;;;;;;;;;;;;;11.59;79.27;98302.88;3110604;28;19965;-77
2021/01/28 14:56:12;;;;;;;;;;;;;;;11.67;79.03;98310.75;3108269;28;19925;-78
2021/01/28 14:57:43;;;;;;;;;;;;;;;11.66;78.78;98307.25;3110293;28;19925;-78
2021/01/28 14:59:16;;;;;;;;;;;;;;;11.69;79.03;98311.38;3112549;28;19937;-78
2021/01/28 15:00:54;;;;;;;;;;;;;;;11.73;79.03;98314.50;3109564;28;19929;-78
2021/01/28 15:02:25;;;;;;;;;;;;;;;11.70;79.04;98313.06;3112436;28;19937;-78
2021/01/28 15:03:56;;;;;;;;;;;;;;;11.70;78.92;98319.25;3108649;28;19969;-78
2021/01/28 15:05:35;;;;;;;;;;;;;;;11.86;78.28;98322.66;3112424;28;19933;-77
2021/01/28 15:07:06;;;;;;;;;;;;;;;11.80;78.47;98316.22;3111220;28;19980;-79
2021/01/28 15:08:43;;;;;;;;;;;;;;;11.79;78.49;98303.84;3112649;28;19925;-78
2021/01/28 15:10:16;;;;;;;;;;;;;;;11.78;78.52;98312.09;3114084;28;20029;-78
2021/01/28 15:11:50;;;;;;;;;;;;;;;11.80;78.69;98302.03;3113918;28;19941;-78
2021/01/28 15:13:22;;;;;;;;;;;;;;;11.87;78.49;98305.56;3110841;28;19933;-77
2021/01/28 15:15:12;;;;;;;;;;;;;;;11.81;78.85;98314.34;3110349;28;20381;-77
2021/01/28 15:16:57;;;;;;;;;;;;;;;11.81;78.91;98314.34;3099087;28;19926;-78
2021/01/28 15:18:40;;;;;;;;;;;;;;;11.83;78.71;98315.00;3109323;28;19956;-78
2021/01/28 15:20:23;;;;;;;;;;;;;;;11.83;78.77;98312.31;3112762;28;19969;-77
2021/01/28 15:21:56;;;;;;;;;;;;;;;11.76;79.25;98324.84;3110311;28;19937;-78
2021/01/28 15:23:27;;;;;;;;;;;;;;;11.74;79.38;98308.97;3112435;28;20383;-77
2021/01/28 15:24:58;;;;;;;;;;;;;;;11.74;79.21;98319.69;3110460;28;19926;-77
2021/01/28 15:26:31;;;;;;;;;;;;;;;11.74;79.34;98308.97;3112618;28;19933;-78
2021/01/28 15:28:02;;;;;;;;;;;;;;;11.78;79.14;98314.75;3110623;28;20411;-78
2021/01/28 15:29:33;;;;;;;;;;;;;;;11.82;78.67;98324.03;3108725;28;19961;-78
2021/01/28 15:31:04;;;;;;;;;;;;;;;11.86;78.91;98325.31;3097657;28;19995;-76
2021/01/28 15:32:36;;;;;;;;;;;;;;;11.85;78.75;98321.00;3107470;28;19969;-77
2021/01/28 15:34:07;;;;;;;;;;;;;;;11.88;78.57;98320.59;3110139;28;19930;-78
2021/01/28 15:35:38;;;;;;;;;;;;;;;11.89;78.33;98319.59;3119373;28;19983;-78
2021/01/28 15:37:09;;;;;;;;;;;;;;;11.92;77.96;98318.38;3102843;28;19926;-77
2021/01/28 15:38:40;;;;;;;;;;;;;;;11.92;78.00;98321.84;3111185;28;19979;-78
2021/01/28 15:40:11;;;;;;;;;;;;;;;11.91;77.77;98327.41;3108990;28;19930;-78
2021/01/28 15:41:42;;;;;;;;;;;;;;;11.98;77.69;98331.84;3110556;28;19926;-77
2021/01/28 15:43:14;;;;;;;;;;;;;;;12.02;77.16;98343.78;3106872;28;20420;-78
2021/01/28 15:44:45;;;;;;;;;;;;;;;12.08;76.90;98322.63;3110441;28;19978;-77
2021/01/28 15:46:23;;;;;;;;;;;;;;;12.05;76.95;98339.06;3109156;28;19925;-77
2021/01/28 15:47:55;;;;;;;;;;;;;;;12.00;77.61;98337.78;3109622;28;19926;-77
2021/01/28 15:49:27;;;;;;;;;;;;;;;11.98;77.94;98353.25;3109847;28;19988;-76
2021/01/28 15:50:59;;;;;;;;;;;;;;;11.96;78.66;98344.56;3108567;28;19964;-78
2021/01/28 15:52:34;;;;;;;;;;;;;;;11.86;78.89;98354.78;3111213;28;19926;-77
2021/01/28 15:54:06;;;;;;;;;;;;;;;11.74;80.12;98365.19;3110386;28;19968;-78
2021/01/28 15:55:36;;;;;;;;;;;;;;;11.76;79.85;98362.31;3111392;28;19964;-77
2021/01/28 15:57:07;;;;;;;;;;;;;;;11.62;80.39;98364.06;3120122;28;19925;-78
2021/01/28 15:58:45;;;;;;;;;;;;;;;11.64;80.15;98351.31;3109929;28;19925;-77
2021/01/28 16:00:16;;;;;;;;;;;;;;;11.66;79.97;98358.13;3109227;28;19971;-77
2021/01/28 16:01:57;;;;;;;;;;;;;;;11.65;79.91;98366.34;3109833;28;19929;-77
2021/01/28 16:03:41;;;;;;;;;;;;;;;11.65;80.03;98366.34;3109041;28;19979;-76
2021/01/28 16:05:12;;;;;;;;;;;;;;;11.63;79.79;98358.50;3110112;28;19953;-78
2021/01/28 16:06:43;;;;;;;;;;;;;;;11.65;79.83;98369.84;3110490;28;19925;-78
2021/01/28 16:08:14;;;;;;;;;;;;;;;11.62;79.90;98372.09;3109616;28;19925;-77
2021/01/28 16:09:53;;;;;;;;;;;;;;;11.63;79.87;98377.22;3107507;28;19925;-77
2021/01/28 16:11:24;;;;;;;;;;;;;;;11.69;79.51;98373.81;3116984;28;19960;-77
2021/01/28 16:12:55;;;;;;;;;;;;;;;11.68;79.54;98373.97;3106113;28;19961;-78
2021/01/28 16:14:45;;;;;;;;;;;;;;;11.66;79.81;98376.84;3115550;28;20441;-78
2021/01/28 16:16:17;;;;;;;;;;;;;;;11.69;79.42;98371.13;3113491;28;19997;-78
2021/01/28 16:17:50;;;;;;;;;;;;;;;11.74;78.85;98388.44;3111802;28;19961;-79
2021/01/28 16:19:26;;;;;;;;;;;;;;;11.80;78.75;98390.38;3106232;28;20423;-77
2021/01/28 16:20:57;;;;;;;;;;;;;;;11.77;79.01;98398.78;3111121;28;19929;-78